Time;durP1;ratioP1;P1;durP2;ratioP2;P2;SDS_P1;SDS_P2;PMS_P1;PMS_P2;Temp;Humidity;BMP_temperature;BMP_pressure;BME280_temperature;BME280_humidity;BME280_pressure;Samples;Min_cycle;Max_cycle;Signal;HPM_P1;HPM_P2
2022/07/27 00:00:50;;;;;;;2.95;0.80;;;14.80;99.90;;;;;;5016686;28;20042;-69
2022/07/27 00:03:16;;;;;;;20.38;1.95;;;14.70;99.90;;;;;;5016896;28;20088;-69
2022/07/27 00:05:42;;;;;;;2.70;0.73;;;14.80;99.90;;;;;;5015895;28;20042;-69
2022/07/27 00:08:07;;;;;;;2.13;0.70;;;14.80;99.90;;;;;;5015842;28;20049;-69
2022/07/27 00:10:34;;;;;;;3.38;0.80;;;14.80;99.90;;;;;;5015902;28;20048;-69
2022/07/27 00:13:00;;;;;;;4.13;1.20;;;14.80;99.90;;;;;;5015833;28;20440;-68
2022/07/27 00:15:26;;;;;;;4.28;0.80;;;14.80;99.90;;;;;;5015959;28;20053;-69
2022/07/27 00:17:52;;;;;;;2.40;1.00;;;14.80;99.90;;;;;;5016012;28;20497;-69
2022/07/27 00:20:18;;;;;;;1.42;0.82;;;14.80;99.90;;;;;;4965572;28;20062;-69
2022/07/27 00:22:43;;;;;;;3.88;1.23;;;14.80;99.90;;;;;;5016308;28;20053;-69
2022/07/27 00:25:09;;;;;;;3.97;1.17;;;14.80;99.90;;;;;;5016436;28;20442;-69
2022/07/27 00:27:35;;;;;;;0.98;0.60;;;14.80;99.90;;;;;;5016078;28;20107;-69
2022/07/27 00:30:00;;;;;;;3.50;1.02;;;14.70;99.90;;;;;;5015555;28;20056;-70
2022/07/27 00:32:26;;;;;;;3.90;0.82;;;14.80;99.90;;;;;;4998543;28;20092;-69
2022/07/27 00:34:51;;;;;;;3.05;0.93;;;14.70;99.90;;;;;;4982299;28;20149;-69
2022/07/27 00:37:17;;;;;;;5.43;1.45;;;14.70;99.90;;;;;;5016132;28;20403;-69
2022/07/27 00:39:42;;;;;;;3.47;0.80;;;14.60;99.90;;;;;;5015641;28;20045;-69
2022/07/27 00:42:08;;;;;;;1.60;0.70;;;14.50;99.90;;;;;;5015686;28;20367;-69
2022/07/27 00:44:34;;;;;;;4.03;0.98;;;14.60;99.90;;;;;;5015703;28;20065;-69
2022/07/27 00:47:00;;;;;;;3.65;0.93;;;14.50;99.90;;;;;;5016100;28;20054;-69
2022/07/27 00:49:26;;;;;;;3.80;0.90;;;14.50;99.90;;;;;;5015382;28;20358;-70
2022/07/27 00:51:52;;;;;;;2.42;1.08;;;14.30;99.90;;;;;;5015871;28;20199;-69
2022/07/27 00:54:18;;;;;;;2.92;0.60;;;14.40;99.90;;;;;;5015291;28;20049;-69
2022/07/27 00:56:44;;;;;;;3.28;0.90;;;14.30;99.90;;;;;;5015670;28;20046;-70
2022/07/27 00:59:11;;;;;;;4.07;1.05;;;14.30;99.90;;;;;;5015334;28;20049;-69
2022/07/27 01:01:37;;;;;;;3.50;1.10;;;14.30;99.90;;;;;;5015183;28;20056;-69
2022/07/27 01:04:03;;;;;;;6.47;1.15;;;14.20;99.90;;;;;;5015729;28;20054;-69
2022/07/27 01:06:30;;;;;;;3.15;1.38;;;14.20;99.90;;;;;;5015114;28;20100;-69
2022/07/27 01:11:47;;;;;;;2.55;0.73;;;14.10;99.90;;;;;;4994366;28;20064;-69
2022/07/27 01:14:14;;;;;;;5.00;0.90;;;14.20;99.90;;;;;;4997851;28;20141;-69
2022/07/27 01:16:40;;;;;;;3.15;0.90;;;14.20;99.90;;;;;;5015001;28;20517;-69
2022/07/27 01:19:08;;;;;;;1.83;1.05;;;14.10;99.90;;;;;;5015017;28;20043;-69
2022/07/27 01:21:34;;;;;;;4.35;1.20;;;14.10;99.90;;;;;;5016024;28;20041;-69
2022/07/27 01:24:01;;;;;;;2.80;1.13;;;14.10;99.90;;;;;;5021565;28;20129;-69
2022/07/27 01:26:27;;;;;;;6.00;1.42;;;14.00;99.90;;;;;;5021545;28;20042;-69
2022/07/27 01:28:57;;;;;;;3.63;1.17;;;14.00;99.90;;;;;;5021587;28;20048;-69
2022/07/27 01:31:22;;;;;;;3.53;1.05;;;14.00;99.90;;;;;;5021417;28;20045;-69
2022/07/27 01:33:48;;;;;;;5.10;1.00;;;13.90;99.90;;;;;;5021962;28;20044;-69
2022/07/27 01:36:14;;;;;;;1.73;0.88;;;13.90;99.90;;;;;;5022033;28;20045;-69
2022/07/27 01:38:39;;;;;;;4.55;1.10;;;13.80;99.90;;;;;;5021295;28;20114;-69
2022/07/27 01:41:05;;;;;;;5.97;1.25;;;13.70;99.90;;;;;;5021969;28;20121;-69
2022/07/27 01:43:30;;;;;;;4.57;1.33;;;13.60;99.90;;;;;;5021480;28;20054;-69
2022/07/27 01:45:58;;;;;;;3.30;1.05;;;13.50;99.90;;;;;;5021235;28;20053;-70
2022/07/27 01:48:24;;;;;;;2.42;1.17;;;13.40;99.90;;;;;;5021571;28;20328;-69
2022/07/27 01:50:50;;;;;;;2.40;1.00;;;13.40;99.90;;;;;;5021708;28;20052;-69
2022/07/27 01:53:16;;;;;;;4.13;1.25;;;13.30;99.90;;;;;;5021183;28;20045;-69
2022/07/27 01:55:42;;;;;;;3.58;1.08;;;13.30;99.90;;;;;;5021237;28;20041;-69
2022/07/27 01:58:08;;;;;;;5.30;1.60;;;13.30;99.90;;;;;;5021203;28;20050;-69
2022/07/27 02:00:34;;;;;;;3.55;1.13;;;13.30;99.90;;;;;;5021205;28;20037;-69
2022/07/27 02:03:01;;;;;;;3.45;1.20;;;13.40;99.90;;;;;;5021892;28;20371;-69
2022/07/27 02:05:27;;;;;;;3.33;1.30;;;13.40;99.90;;;;;;5021043;28;20478;-69
2022/07/27 02:07:52;;;;;;;3.88;1.25;;;13.40;99.90;;;;;;5021439;28;20037;-69
2022/07/27 02:10:18;;;;;;;4.07;1.52;;;13.40;99.90;;;;;;5021185;28;20161;-69
2022/07/27 02:12:43;;;;;;;4.95;1.40;;;13.40;99.90;;;;;;5021719;28;20072;-69
2022/07/27 02:15:15;;;;;;;6.65;1.15;;;13.40;99.90;;;;;;5021000;28;20470;-69
2022/07/27 02:17:45;;;;;;;4.70;1.63;;;13.40;99.90;;;;;;5004064;28;20530;-69
2022/07/27 02:20:11;;;;;;;3.47;1.10;;;13.30;99.90;;;;;;5021184;28;20153;-69
2022/07/27 02:22:37;;;;;;;4.85;1.30;;;13.30;99.90;;;;;;5020969;28;20046;-69
2022/07/27 02:25:04;;;;;;;1.85;1.10;;;13.20;99.90;;;;;;5021182;28;20061;-69
2022/07/27 02:27:30;;;;;;;4.65;1.67;;;13.10;99.90;;;;;;5021017;28;20053;-69
2022/07/27 02:29:56;;;;;;;18.25;1.50;;;13.00;99.90;;;;;;5021273;28;20125;-69
2022/07/27 02:32:22;;;;;;;3.13;1.30;;;12.90;99.90;;;;;;5021047;28;20061;-69
2022/07/27 02:34:48;;;;;;;3.97;1.05;;;12.80;99.90;;;;;;5018047;28;20057;-69
2022/07/27 02:37:14;;;;;;;3.83;1.30;;;12.80;99.90;;;;;;5017891;28;20382;-69
2022/07/27 02:39:39;;;;;;;3.15;1.40;;;12.70;99.90;;;;;;5000639;28;20518;-69
2022/07/27 02:42:05;;;;;;;6.68;1.40;;;12.60;99.90;;;;;;5017581;28;20050;-69
2022/07/27 02:44:31;;;;;;;1.92;1.05;;;12.60;99.90;;;;;;5018563;28;20050;-70
2022/07/27 02:46:57;;;;;;;3.60;1.75;;;12.50;99.90;;;;;;5017675;28;20125;-69
2022/07/27 02:49:22;;;;;;;10.13;1.65;;;12.50;99.90;;;;;;5018148;28;20038;-69
2022/07/27 02:51:52;;;;;;;9.07;1.35;;;12.40;99.90;;;;;;5018176;28;20037;-68
2022/07/27 02:54:23;;;;;;;3.67;1.00;;;12.40;99.90;;;;;;5017226;28;20056;-68
2022/07/27 02:56:53;;;;;;;3.15;1.58;;;12.40;99.90;;;;;;5017446;28;20116;-69
2022/07/27 02:59:19;;;;;;;2.83;1.27;;;12.30;99.90;;;;;;5017449;28;20046;-69
2022/07/27 03:01:45;;;;;;;3.90;1.50;;;12.30;99.90;;;;;;5017418;28;20077;-69
2022/07/27 03:04:11;;;;;;;5.00;1.50;;;12.30;99.90;;;;;;5017571;28;20049;-69
2022/07/27 03:06:37;;;;;;;4.55;1.85;;;12.30;99.90;;;;;;5000487;28;20053;-68
2022/07/27 03:09:03;;;;;;;8.68;2.00;;;12.40;99.90;;;;;;5017209;28;20168;-69
2022/07/27 03:11:29;;;;;;;3.90;1.33;;;12.40;99.90;;;;;;5017665;28;20140;-68
2022/07/27 03:13:55;;;;;;;3.35;1.40;;;12.40;99.90;;;;;;5017623;28;20352;-69
2022/07/27 03:16:20;;;;;;;3.17;1.48;;;12.50;99.90;;;;;;5000496;28;20057;-69
2022/07/27 03:18:46;;;;;;;7.70;1.60;;;12.50;99.90;;;;;;5017276;28;20042;-69
2022/07/27 03:21:12;;;;;;;6.15;1.52;;;12.70;99.90;;;;;;5017053;28;20037;-69
2022/07/27 03:23:38;;;;;;;2.63;1.40;;;12.70;99.90;;;;;;5000424;28;20069;-68
2022/07/27 03:26:04;;;;;;;5.25;1.50;;;12.70;99.90;;;;;;5017477;28;20057;-68
2022/07/27 03:28:29;;;;;;;5.60;1.88;;;12.80;99.90;;;;;;5017131;28;20473;-69
2022/07/27 03:30:55;;;;;;;2.75;1.20;;;12.90;99.90;;;;;;5016969;28;20048;-69
2022/07/27 03:33:20;;;;;;;4.13;1.23;;;12.90;99.90;;;;;;5016704;28;20422;-69
2022/07/27 03:35:46;;;;;;;5.35;1.40;;;13.00;99.90;;;;;;5016904;28;20137;-68
2022/07/27 03:38:11;;;;;;;6.40;1.95;;;13.00;99.90;;;;;;5017222;28;20363;-68
2022/07/27 03:40:37;;;;;;;3.58;1.30;;;13.10;99.90;;;;;;5016514;28;20108;-69
2022/07/27 03:43:03;;;;;;;5.65;1.40;;;13.10;99.90;;;;;;5016547;28;20045;-69
2022/07/27 03:45:28;;;;;;;4.55;1.70;;;13.20;99.90;;;;;;5016040;28;20056;-69
2022/07/27 03:47:54;;;;;;;8.02;1.50;;;13.20;99.90;;;;;;5016681;28;20049;-69
2022/07/27 03:50:20;;;;;;;4.32;1.90;;;13.30;99.90;;;;;;5016507;28;20424;-69
2022/07/27 03:52:45;;;;;;;6.35;2.00;;;13.30;99.90;;;;;;5016534;28;20172;-68
2022/07/27 03:55:11;;;;;;;4.72;2.10;;;13.30;99.90;;;;;;5016198;28;20053;-69
2022/07/27 03:57:36;;;;;;;7.07;1.77;;;13.40;99.90;;;;;;4999309;28;20038;-69
2022/07/27 04:00:03;;;;;;;4.03;1.58;;;13.40;99.90;;;;;;5016296;28;20111;-69
2022/07/27 04:02:29;;;;;;;2.65;1.20;;;13.40;99.90;;;;;;5016500;28;20058;-69
2022/07/27 04:04:54;;;;;;;3.70;1.40;;;13.40;99.90;;;;;;5016744;28;20363;-69
2022/07/27 04:07:20;;;;;;;5.93;1.52;;;13.50;99.90;;;;;;5015922;28;20455;-69
2022/07/27 04:09:45;;;;;;;3.42;1.30;;;13.50;99.90;;;;;;5016147;28;20135;-69
2022/07/27 04:12:11;;;;;;;4.22;1.65;;;13.60;99.90;;;;;;5016952;28;20316;-68
2022/07/27 04:14:37;;;;;;;3.17;1.60;;;13.60;99.90;;;;;;5016107;28;20381;-69
2022/07/27 04:17:03;;;;;;;5.38;2.15;;;13.60;99.90;;;;;;5016562;28;20056;-69
2022/07/27 04:19:28;;;;;;;3.17;1.17;;;13.60;99.90;;;;;;5016090;28;20378;-68
2022/07/27 04:21:54;;;;;;;3.22;1.88;;;13.60;99.90;;;;;;5016303;28;20049;-68
2022/07/27 04:24:20;;;;;;;3.13;1.33;;;13.70;99.90;;;;;;5015955;28;20077;-69
2022/07/27 04:26:45;;;;;;;3.25;1.30;;;13.70;99.90;;;;;;5016255;28;20111;-68
2022/07/27 04:29:12;;;;;;;6.30;1.73;;;13.80;99.90;;;;;;5016334;28;20066;-69
2022/07/27 04:31:37;;;;;;;3.83;1.25;;;13.80;99.90;;;;;;5016100;28;20038;-68
2022/07/27 04:34:03;;;;;;;3.60;1.13;;;13.80;99.90;;;;;;5015298;28;20056;-69
2022/07/27 04:36:28;;;;;;;4.45;1.55;;;14.00;99.90;;;;;;5016339;28;20050;-68
2022/07/27 04:38:54;;;;;;;5.63;1.73;;;13.90;99.90;;;;;;5015612;28;20123;-68
2022/07/27 04:41:20;;;;;;;9.90;1.90;;;14.00;99.90;;;;;;5015633;28;20468;-68
2022/07/27 04:43:45;;;;;;;4.20;1.27;;;14.10;99.90;;;;;;5015666;28;20042;-69
2022/07/27 04:46:12;;;;;;;4.70;1.63;;;14.10;99.90;;;;;;5015903;28;20085;-69
2022/07/27 04:48:38;;;;;;;3.90;1.40;;;14.20;99.90;;;;;;5015593;28;20069;-69
2022/07/27 04:51:03;;;;;;;8.60;1.70;;;14.20;99.90;;;;;;5015951;28;20049;-69
2022/07/27 04:53:29;;;;;;;6.78;1.30;;;14.20;99.90;;;;;;5015000;28;20501;-69
2022/07/27 04:55:55;;;;;;;4.03;1.40;;;14.20;99.90;;;;;;5014967;28;20120;-68
2022/07/27 04:58:21;;;;;;;9.05;1.90;;;14.10;99.90;;;;;;5014635;28;20116;-69
2022/07/27 05:00:47;;;;;;;2.55;1.33;;;14.30;99.90;;;;;;5015499;28;20046;-69
2022/07/27 05:03:12;;;;;;;4.75;1.38;;;14.30;99.90;;;;;;5015622;28;20140;-69
2022/07/27 05:05:38;;;;;;;4.95;1.27;;;14.40;99.90;;;;;;5015342;28;20054;-69
2022/07/27 05:08:04;;;;;;;5.43;1.70;;;14.50;99.90;;;;;;5015138;28;20053;-69
2022/07/27 05:10:29;;;;;;;5.28;1.50;;;14.70;99.90;;;;;;5015152;28;20046;-69
2022/07/27 05:12:55;;;;;;;5.75;1.42;;;14.80;99.90;;;;;;5015348;28;20042;-69
2022/07/27 05:15:21;;;;;;;6.50;1.42;;;14.90;99.90;;;;;;5015607;28;20160;-68
2022/07/27 05:17:47;;;;;;;6.00;1.65;;;15.10;99.90;;;;;;5015340;28;20467;-69
2022/07/27 05:20:13;;;;;;;8.93;1.70;;;15.10;99.90;;;;;;5014983;28;20042;-68
2022/07/27 05:22:39;;;;;;;3.35;1.45;;;15.20;99.90;;;;;;4998128;28;20428;-69
2022/07/27 05:25:05;;;;;;;3.55;1.30;;;15.20;99.90;;;;;;5015449;28;20107;-68
2022/07/27 05:27:30;;;;;;;3.67;1.50;;;15.30;99.90;;;;;;5015114;28;20046;-69
2022/07/27 05:29:56;;;;;;;4.75;1.42;;;15.30;99.90;;;;;;5014892;28;20100;-68
2022/07/27 05:32:22;;;;;;;4.47;1.17;;;15.20;99.90;;;;;;5015026;28;20371;-69
2022/07/27 05:34:48;;;;;;;4.45;1.23;;;15.20;99.90;;;;;;5014839;28;20068;-69
2022/07/27 05:37:13;;;;;;;4.47;1.63;;;15.20;99.90;;;;;;5014820;28;20050;-70
2022/07/27 05:39:41;;;;;;;3.63;1.30;;;15.10;99.90;;;;;;5014786;28;20034;-69
2022/07/27 05:42:08;;;;;;;5.63;2.08;;;15.10;99.90;;;;;;5014816;28;20061;-68
2022/07/27 05:44:34;;;;;;;5.95;1.67;;;15.10;99.90;;;;;;5015454;28;20046;-69
2022/07/27 05:46:59;;;;;;;7.25;1.80;;;15.10;99.90;;;;;;5014721;28;20521;-68
2022/07/27 05:49:25;;;;;;;4.60;1.30;;;15.20;99.90;;;;;;5015320;28;20058;-69
2022/07/27 05:51:50;;;;;;;4.88;1.50;;;15.30;99.90;;;;;;5014746;28;20362;-69
2022/07/27 05:54:17;;;;;;;4.30;1.48;;;15.40;99.90;;;;;;5014803;28;20043;-69
2022/07/27 05:56:43;;;;;;;4.68;1.50;;;15.50;99.90;;;;;;5014764;28;20042;-68
2022/07/27 05:59:09;;;;;;;2.53;0.90;;;15.40;99.90;;;;;;5014938;28;20386;-68
2022/07/27 06:01:35;;;;;;;6.47;1.23;;;15.50;99.90;;;;;;5014518;28;20054;-68
2022/07/27 06:04:01;;;;;;;8.95;2.10;;;15.40;99.90;;;;;;5014700;28;20054;-68
2022/07/27 06:09:11;;;;;;;4.20;1.17;;;15.30;99.90;;;;;;5017063;28;20089;-68
2022/07/27 06:11:36;;;;;;;4.50;1.17;;;15.20;99.90;;;;;;5018153;28;20454;-69
2022/07/27 06:14:02;;;;;;;4.18;1.20;;;15.20;99.90;;;;;;5018485;28;20064;-69
2022/07/27 06:16:28;;;;;;;7.22;1.52;;;15.20;99.90;;;;;;5018168;28;20393;-68
2022/07/27 06:18:53;;;;;;;3.00;1.00;;;15.20;99.90;;;;;;5018695;28;20046;-69
2022/07/27 06:21:19;;;;;;;4.20;1.60;;;15.10;99.90;;;;;;5018698;28;20048;-70
2022/07/27 06:23:47;;;;;;;5.35;1.30;;;15.20;99.90;;;;;;5018768;28;20108;-69
2022/07/27 06:26:12;;;;;;;7.13;1.52;;;15.30;99.90;;;;;;5018102;28;20104;-69
2022/07/27 06:28:38;;;;;;;5.80;1.23;;;15.40;99.90;;;;;;5018230;28;20046;-69
2022/07/27 06:31:04;;;;;;;6.40;1.77;;;15.60;99.90;;;;;;5017664;28;20042;-69
2022/07/27 06:33:30;;;;;;;6.00;1.52;;;15.80;99.90;;;;;;5017985;28;20052;-69
2022/07/27 06:35:58;;;;;;;4.95;1.38;;;16.00;99.90;;;;;;5017822;28;20054;-69
2022/07/27 06:38:24;;;;;;;7.20;1.80;;;16.10;99.90;;;;;;5017869;28;20076;-69
2022/07/27 06:40:53;;;;;;;6.50;1.52;;;16.30;99.90;;;;;;5017867;28;20038;-69
2022/07/27 06:43:19;;;;;;;3.90;1.10;;;16.40;99.90;;;;;;5017720;28;20095;-68
2022/07/27 06:45:45;;;;;;;3.53;1.33;;;16.60;99.90;;;;;;5017839;28;20042;-69
2022/07/27 06:48:11;;;;;;;4.05;1.10;;;16.70;99.90;;;;;;5017578;28;20125;-69
2022/07/27 06:50:36;;;;;;;3.80;1.17;;;17.00;99.90;;;;;;5018148;28;20054;-69
2022/07/27 06:53:02;;;;;;;6.00;1.00;;;17.30;99.90;;;;;;5017608;28;20046;-69
2022/07/27 06:55:28;;;;;;;4.75;1.08;;;17.70;99.90;;;;;;5017351;28;20053;-69
2022/07/27 06:57:54;;;;;;;4.28;1.40;;;18.20;99.90;;;;;;5017780;28;20082;-69
2022/07/27 07:00:20;;;;;;;5.32;1.70;;;18.90;99.90;;;;;;5017233;28;20060;-69
2022/07/27 07:02:56;;;;;;;6.25;1.50;;;19.90;99.90;;;;;;5016975;28;20058;-70
2022/07/27 07:05:22;;;;;;;2.85;0.82;;;21.60;99.90;;;;;;5017366;28;20054;-70
2022/07/27 07:07:48;;;;;;;3.30;1.00;;;23.20;99.90;;;;;;5000602;28;20437;-70
2022/07/27 07:10:14;;;;;;;3.15;1.17;;;24.10;99.90;;;;;;5017720;28;20447;-70
2022/07/27 07:12:40;;;;;;;5.15;1.00;;;25.00;99.50;;;;;;5017878;28;20042;-70
2022/07/27 07:15:06;;;;;;;3.92;0.80;;;25.10;99.60;;;;;;5017055;28;20048;-71
2022/07/27 07:17:32;;;;;;;4.18;0.82;;;25.10;99.50;;;;;;5017624;28;20347;-70
2022/07/27 07:19:58;;;;;;;10.05;1.00;;;25.40;98.70;;;;;;5016108;28;20045;-69
2022/07/27 07:22:24;;;;;;;7.40;1.02;;;25.90;98.70;;;;;;5017821;28;20077;-70
2022/07/27 07:24:50;;;;;;;3.72;1.00;;;26.50;97.60;;;;;;5016827;28;20469;-71
2022/07/27 07:27:18;;;;;;;2.47;0.82;;;26.90;96.40;;;;;;5017072;28;20034;-70
2022/07/27 07:29:44;;;;;;;6.57;1.45;;;27.40;96.20;;;;;;5017439;28;20107;-69
2022/07/27 07:32:09;;;;;;;2.53;0.90;;;27.90;95.50;;;;;;5016697;28;20418;-70
2022/07/27 07:34:35;;;;;;;4.22;0.90;;;28.00;94.60;;;;;;5016761;28;20056;-71
2022/07/27 07:37:00;;;;;;;2.88;0.85;;;28.40;94.60;;;;;;5016840;28;20136;-70
2022/07/27 07:39:26;;;;;;;4.60;1.25;;;28.60;93.90;;;;;;5016696;28;20046;-71
2022/07/27 07:41:52;;;;;;;4.50;1.08;;;28.80;93.30;;;;;;5016486;28;20045;-70
2022/07/27 07:44:18;;;;;;;2.35;0.80;;;28.60;92.80;;;;;;5016516;28;20041;-70
2022/07/27 07:46:43;;;;;;;3.70;0.80;;;28.40;91.10;;;;;;5016546;28;20455;-71
2022/07/27 07:49:09;;;;;;;5.43;0.85;;;28.20;92.20;;;;;;5016983;28;20111;-70
2022/07/27 07:51:35;;;;;;;3.30;1.20;;;28.50;92.70;;;;;;5016498;28;20045;-71
2022/07/27 07:54:01;;;;;;;5.18;1.20;;;28.60;92.90;;;;;;5016711;28;20041;-71
2022/07/27 07:56:26;;;;;;;1.95;0.70;;;28.50;92.40;;;;;;5016332;28;20065;-71
2022/07/27 07:58:52;;;;;;;2.53;0.90;;;28.50;92.70;;;;;;5016352;28;20075;-70
2022/07/27 08:01:18;;;;;;;3.92;1.00;;;28.30;92.70;;;;;;5016829;28;20096;-70
2022/07/27 08:03:43;;;;;;;3.28;0.98;;;28.80;92.10;;;;;;5016797;28;20100;-70
2022/07/27 08:06:09;;;;;;;3.47;0.70;;;28.30;91.50;;;;;;5016190;28;20056;-70
2022/07/27 08:08:35;;;;;;;3.67;0.82;;;26.90;91.50;;;;;;5016234;28;20130;-69
2022/07/27 08:11:00;;;;;;;3.10;0.80;;;25.50;91.40;;;;;;5016142;28;20099;-70
2022/07/27 08:13:26;;;;;;;3.22;0.70;;;24.30;91.90;;;;;;5015965;28;20053;-70
2022/07/27 08:15:52;;;;;;;4.90;0.80;;;23.00;92.80;;;;;;5016127;28;20049;-70
2022/07/27 08:18:18;;;;;;;2.30;0.90;;;21.80;93.90;;;;;;4999005;28;20049;-70
2022/07/27 08:20:43;;;;;;;4.13;1.00;;;20.90;95.20;;;;;;5016092;28;20473;-70
2022/07/27 08:23:11;;;;;;;4.40;0.98;;;20.10;96.20;;;;;;5015954;28;20181;-69
2022/07/27 08:25:37;;;;;;;4.65;0.90;;;19.60;96.80;;;;;;5015894;28;20042;-69
2022/07/27 08:28:04;;;;;;;4.20;1.08;;;19.30;98.00;;;;;;5015964;28;20045;-70
2022/07/27 08:30:30;;;;;;;5.07;1.15;;;19.20;98.70;;;;;;5015797;28;20112;-69
2022/07/27 08:32:58;;;;;;;4.47;0.80;;;19.10;99.90;;;;;;5015538;28;20163;-69
2022/07/27 08:35:25;;;;;;;5.68;1.15;;;19.00;99.90;;;;;;5016052;28;20080;-69
2022/07/27 08:37:51;;;;;;;2.88;1.00;;;19.00;99.90;;;;;;5015625;28;20081;-69
2022/07/27 08:40:18;;;;;;;3.47;1.40;;;18.90;99.90;;;;;;5015673;28;20088;-70
2022/07/27 08:42:44;;;;;;;4.75;1.27;;;18.90;99.90;;;;;;5016083;28;20050;-70
2022/07/27 08:45:12;;;;;;;2.72;1.17;;;18.80;99.90;;;;;;5015511;28;20355;-70
2022/07/27 08:47:39;;;;;;;6.75;1.00;;;18.80;99.90;;;;;;5015984;28;20404;-70
2022/07/27 08:50:22;;;;;;;4.78;1.38;;;18.80;99.90;;;;;;5015305;28;20474;-69
2022/07/27 08:52:56;;;;;;;11.85;1.60;;;18.70;99.90;;;;;;5015452;28;20358;-69
2022/07/27 08:55:22;;;;;;;2.88;0.90;;;18.70;99.90;;;;;;5015167;28;20534;-69
2022/07/27 08:57:49;;;;;;;2.35;1.10;;;19.00;99.90;;;;;;5015249;28;20046;-69
2022/07/27 09:00:15;;;;;;;4.97;0.95;;;19.20;99.90;;;;;;5015376;28;20120;-70
2022/07/27 09:02:45;;;;;;;3.40;1.27;;;19.30;99.90;;;;;;4994964;28;20506;-70
2022/07/27 09:05:10;;;;;;;3.25;1.45;;;19.30;99.90;;;;;;4994833;28;20046;-70
2022/07/27 09:07:36;;;;;;;3.47;1.40;;;19.40;99.90;;;;;;4995649;28;20340;-70
2022/07/27 09:10:03;;;;;;;2.30;0.90;;;19.20;99.00;;;;;;4995548;28;20133;-70
2022/07/27 09:12:31;;;;;;;4.68;1.00;;;19.40;99.80;;;;;;4995498;28;20047;-69
2022/07/27 09:15:09;;;;;;;1.65;1.05;;;19.80;99.70;;;;;;4994842;28;20050;-70
2022/07/27 09:17:36;;;;;;;1.85;0.60;;;20.60;99.20;;;;;;4995137;28;20495;-70
2022/07/27 09:20:10;;;;;;;3.15;0.60;;;21.40;98.50;;;;;;4995198;28;20042;-70
2022/07/27 09:22:54;;;;;;;3.28;1.08;;;21.70;96.00;;;;;;4995485;28;20550;-69
2022/07/27 09:25:23;;;;;;;2.10;0.77;;;21.80;96.10;;;;;;4995452;28;20038;-69
2022/07/27 09:27:53;;;;;;;3.13;0.80;;;21.40;95.00;;;;;;4996024;28;20038;-70
2022/07/27 09:30:20;;;;;;;2.25;0.77;;;21.20;94.50;;;;;;4995408;28;20117;-70
2022/07/27 09:32:51;;;;;;;2.50;0.68;;;21.20;95.10;;;;;;4995333;28;20046;-70
2022/07/27 09:35:30;;;;;;;3.70;0.77;;;21.00;94.70;;;;;;4995294;28;20046;-70
2022/07/27 09:38:14;;;;;;;3.15;0.80;;;21.00;94.30;;;;;;4995139;28;20535;-70
2022/07/27 09:40:40;;;;;;;1.65;0.65;;;20.90;95.90;;;;;;4995184;28;20460;-69
2022/07/27 09:43:08;;;;;;;2.00;0.60;;;20.90;95.60;;;;;;4995988;28;20053;-69
2022/07/27 09:45:35;;;;;;;1.90;0.85;;;21.10;96.30;;;;;;4999203;28;20463;-70
2022/07/27 09:48:26;;;;;;;2.40;0.85;;;21.30;95.20;;;;;;4999235;28;20049;-70
2022/07/27 09:50:58;;;;;;;2.83;0.70;;;21.50;94.10;;;;;;4997584;28;20402;-69
2022/07/27 09:53:26;;;;;;;2.28;0.77;;;21.80;94.70;;;;;;4999328;28;20057;-70
2022/07/27 09:56:05;;;;;;;4.00;1.10;;;22.10;94.60;;;;;;4998893;28;20034;-70
2022/07/27 09:58:52;;;;;;;2.33;0.73;;;22.40;93.70;;;;;;4999550;28;20423;-70
2022/07/27 10:01:23;;;;;;;2.13;0.80;;;22.20;92.90;;;;;;4998903;28;20065;-70
2022/07/27 10:03:52;;;;;;;5.95;1.00;;;22.20;93.40;;;;;;4964771;28;20208;-70
2022/07/27 10:06:18;;;;;;;1.58;0.65;;;22.10;93.50;;;;;;4999438;28;20057;-70
2022/07/27 10:08:46;;;;;;;3.25;0.60;;;21.90;92.40;;;;;;4998674;28;20540;-69
2022/07/27 10:11:12;;;;;;;5.57;0.70;;;21.70;93.20;;;;;;4998812;28;20053;-70
2022/07/27 10:13:39;;;;;;;1.17;0.50;;;21.90;93.40;;;;;;4998688;28;20137;-70
2022/07/27 10:16:10;;;;;;;1.15;0.60;;;22.00;93.00;;;;;;4998949;28;20155;-69
2022/07/27 10:18:48;;;;;;;5.15;0.80;;;22.10;92.90;;;;;;4998827;28;20108;-70
2022/07/27 10:21:15;;;;;;;3.08;0.70;;;21.90;92.70;;;;;;4998200;28;20129;-70
2022/07/27 10:24:02;;;;;;;2.47;0.80;;;21.70;92.10;;;;;;4998963;28;20052;-70
2022/07/27 10:26:31;;;;;;;1.98;0.60;;;22.00;92.70;;;;;;4998383;28;20046;-69
2022/07/27 10:29:03;;;;;;;2.80;0.88;;;22.20;93.10;;;;;;4998500;28;20078;-70
2022/07/27 10:31:37;;;;;;;2.83;0.73;;;22.50;91.80;;;;;;4998317;28;20077;-70
2022/07/27 10:34:07;;;;;;;1.40;0.70;;;22.40;90.80;;;;;;4980947;28;20060;-69
2022/07/27 10:36:44;;;;;;;1.70;0.60;;;22.60;91.20;;;;;;4998367;28;20057;-70
2022/07/27 10:39:10;;;;;;;4.90;0.75;;;22.50;90.90;;;;;;4998321;28;20164;-70
2022/07/27 10:41:39;;;;;;;3.40;0.90;;;22.60;91.30;;;;;;4998778;28;20455;-70
2022/07/27 10:44:13;;;;;;;3.85;0.90;;;22.30;91.70;;;;;;4998083;28;20054;-69
2022/07/27 10:46:55;;;;;;;2.03;0.50;;;22.40;91.70;;;;;;4997914;28;20042;-69
2022/07/27 10:49:27;;;;;;;2.22;0.82;;;22.40;91.40;;;;;;4998367;28;20117;-70
2022/07/27 10:51:54;;;;;;;4.22;0.80;;;22.40;91.60;;;;;;4998008;28;20042;-70
2022/07/27 10:54:34;;;;;;;3.03;0.70;;;22.30;91.80;;;;;;4997018;28;20043;-70
2022/07/27 10:57:03;;;;;;;2.00;0.90;;;22.40;91.50;;;;;;4997616;28;20125;-70
2022/07/27 10:59:42;;;;;;;0.95;0.73;;;22.30;91.50;;;;;;4997948;28;20116;-70
2022/07/27 11:02:13;;;;;;;1.70;0.60;;;22.40;91.10;;;;;;5004044;28;20062;-69
2022/07/27 11:04:47;;;;;;;3.17;0.77;;;22.40;90.60;;;;;;5017175;28;20054;-69
2022/07/27 11:07:23;;;;;;;3.03;0.80;;;22.40;90.90;;;;;;5017248;28;20046;-70
2022/07/27 11:09:50;;;;;;;3.85;0.60;;;22.10;90.60;;;;;;5017326;28;20041;-69
2022/07/27 11:12:17;;;;;;;1.27;0.60;;;21.90;90.50;;;;;;4966982;28;20064;-69
2022/07/27 11:14:50;;;;;;;2.08;0.77;;;21.70;91.00;;;;;;5017198;28;20053;-70
2022/07/27 11:17:19;;;;;;;3.33;0.90;;;21.60;91.20;;;;;;5017222;28;20085;-69
2022/07/27 11:19:54;;;;;;;1.02;0.50;;;21.70;91.90;;;;;;5017524;28;20045;-70
2022/07/27 11:22:38;;;;;;;2.88;0.88;;;21.80;90.70;;;;;;5017095;28;20042;-69
2022/07/27 11:25:05;;;;;;;4.50;1.15;;;21.60;90.50;;;;;;5017065;28;20052;-70
2022/07/27 11:27:31;;;;;;;1.90;0.50;;;21.70;90.90;;;;;;5017515;28;20415;-70
2022/07/27 11:29:58;;;;;;;3.45;0.60;;;21.90;91.20;;;;;;5016834;28;20060;-70
2022/07/27 11:32:24;;;;;;;3.63;0.70;;;22.00;90.90;;;;;;5016759;28;20425;-70
2022/07/27 11:34:51;;;;;;;1.08;0.50;;;22.10;89.30;;;;;;5016748;28;20137;-70
2022/07/27 11:37:19;;;;;;;1.95;0.50;;;22.10;90.50;;;;;;5016855;28;20133;-69
2022/07/27 11:39:56;;;;;;;1.85;0.55;;;22.50;91.00;;;;;;5016827;28;20058;-69
2022/07/27 11:42:21;;;;;;;2.10;0.55;;;22.80;89.60;;;;;;5016401;28;20045;-70
2022/07/27 11:44:48;;;;;;;1.92;0.73;;;22.70;89.90;;;;;;5016386;28;20033;-70
2022/07/27 11:47:18;;;;;;;3.63;0.60;;;22.50;88.60;;;;;;4999533;28;20053;-69
2022/07/27 11:49:44;;;;;;;2.42;0.60;;;22.00;89.50;;;;;;5016629;28;20046;-70
2022/07/27 11:52:09;;;;;;;4.00;0.60;;;21.60;90.30;;;;;;5017116;28;20121;-70
2022/07/27 11:54:37;;;;;;;3.05;0.45;;;21.40;90.70;;;;;;5016417;28;20382;-70
2022/07/27 11:57:06;;;;;;;3.80;0.70;;;21.30;91.10;;;;;;5016097;28;20049;-70
2022/07/27 11:59:32;;;;;;;1.40;0.60;;;21.20;91.50;;;;;;5016375;28;20038;-69
2022/07/27 12:02:00;;;;;;;4.72;0.63;;;21.50;91.70;;;;;;5016844;28;20414;-69
2022/07/27 12:04:28;;;;;;;2.67;0.82;;;21.60;91.60;;;;;;5016143;28;20041;-69
2022/07/27 12:07:01;;;;;;;1.00;0.43;;;21.60;91.70;;;;;;5015881;28;20038;-70
2022/07/27 12:09:27;;;;;;;3.05;0.70;;;21.60;91.60;;;;;;5016144;28;20067;-70
2022/07/27 12:11:58;;;;;;;2.83;0.55;;;21.70;91.40;;;;;;5016026;28;20493;-70
2022/07/27 12:14:36;;;;;;;2.15;0.50;;;21.70;91.10;;;;;;5015995;28;20141;-70
2022/07/27 12:17:42;;;;;;;2.05;0.95;;;21.50;90.40;;;;;;5016611;28;20517;-70
2022/07/27 12:20:15;;;;;;;3.05;0.60;;;21.40;91.00;;;;;;4917538;29;20044;-69
2022/07/27 12:22:44;;;;;;;0.65;0.50;;;21.40;91.30;;;;;;4918109;29;20048;-69
2022/07/27 12:25:16;;;;;;;1.63;0.63;;;21.30;91.60;;;;;;4971856;28;20053;-69
2022/07/27 12:27:59;;;;;;;1.42;0.55;;;21.50;91.40;;;;;;5015854;28;20052;-70
2022/07/27 12:30:34;;;;;;;1.88;0.80;;;21.50;91.50;;;;;;4998667;28;20053;-70
2022/07/27 12:33:00;;;;;;;3.97;0.70;;;22.00;91.80;;;;;;5015902;28;20367;-69
2022/07/27 12:35:30;;;;;;;1.35;0.60;;;22.40;92.00;;;;;;5015992;28;20374;-69
2022/07/27 12:38:02;;;;;;;1.40;0.60;;;22.80;90.60;;;;;;5015728;28;20057;-69
2022/07/27 12:40:30;;;;;;;0.70;0.50;;;22.70;91.00;;;;;;5015784;28;20056;-70
2022/07/27 12:43:02;;;;;;;3.80;0.70;;;22.50;90.50;;;;;;5015581;28;20052;-70
2022/07/27 12:45:31;;;;;;;4.22;1.30;;;22.00;90.50;;;;;;5015544;28;20046;-69
2022/07/27 12:48:09;;;;;;;2.50;0.77;;;21.70;91.10;;;;;;5015891;28;20045;-70
2022/07/27 12:50:36;;;;;;;2.47;1.08;;;21.60;91.50;;;;;;5015683;28;20123;-70
2022/07/27 12:53:01;;;;;;;1.20;0.57;;;21.60;91.20;;;;;;5015617;28;20077;-70